sensor_id;sensor_type;location;lat;lon;timestamp;pressure;altitude;pressure_sealevel;temperature;humidity
55191;BME280;41070;50.360;18.742;2023-02-18T00:02:08;98327.34;;;7.38;100.00
55191;BME280;41070;50.360;18.742;2023-02-18T00:04:34;98323.82;;;7.39;100.00
55191;BME280;41070;50.360;18.742;2023-02-18T00:07:00;98324.41;;;7.43;100.00
55191;BME280;41070;50.360;18.742;2023-02-18T00:09:26;98336.30;;;7.48;100.00
55191;BME280;41070;50.360;18.742;2023-02-18T00:11:52;98344.83;;;7.55;100.00
55191;BME280;41070;50.360;18.742;2023-02-18T00:14:19;98351.72;;;7.61;100.00
55191;BME280;41070;50.360;18.742;2023-02-18T00:16:45;98375.52;;;7.72;100.00
55191;BME280;41070;50.360;18.742;2023-02-18T00:19:14;98405.83;;;7.81;100.00
55191;BME280;41070;50.360;18.742;2023-02-18T00:21:41;98459.23;;;7.87;100.00
55191;BME280;41070;50.360;18.742;2023-02-18T00:24:08;98439.58;;;7.84;99.13
55191;BME280;41070;50.360;18.742;2023-02-18T00:26:35;98443.40;;;7.78;97.87
55191;BME280;41070;50.360;18.742;2023-02-18T00:29:02;98439.84;;;7.74;96.41
55191;BME280;41070;50.360;18.742;2023-02-18T00:31:31;98438.59;;;7.64;96.54
55191;BME280;41070;50.360;18.742;2023-02-18T00:33:58;98443.86;;;7.61;95.59
55191;BME280;41070;50.360;18.742;2023-02-18T00:36:25;98456.42;;;7.57;94.46
55191;BME280;41070;50.360;18.742;2023-02-18T00:38:54;98454.20;;;7.55;94.00
55191;BME280;41070;50.360;18.742;2023-02-18T00:41:22;98452.59;;;7.50;94.19
55191;BME280;41070;50.360;18.742;2023-02-18T00:43:49;98455.88;;;7.46;93.99
55191;BME280;41070;50.360;18.742;2023-02-18T00:46:16;98453.75;;;7.44;93.96
55191;BME280;41070;50.360;18.742;2023-02-18T00:48:42;98451.95;;;7.41;94.25
55191;BME280;41070;50.360;18.742;2023-02-18T00:51:09;98454.32;;;7.39;94.09
55191;BME280;41070;50.360;18.742;2023-02-18T00:53:36;98448.82;;;7.38;94.06
55191;BME280;41070;50.360;18.742;2023-02-18T00:56:03;98446.80;;;7.35;94.25
55191;BME280;41070;50.360;18.742;2023-02-18T00:58:30;98440.94;;;7.33;94.07
55191;BME280;41070;50.360;18.742;2023-02-18T01:00:56;98437.73;;;7.28;93.96
55191;BME280;41070;50.360;18.742;2023-02-18T01:03:22;98446.19;;;7.23;93.82
55191;BME280;41070;50.360;18.742;2023-02-18T01:05:50;98440.93;;;7.22;93.33
55191;BME280;41070;50.360;18.742;2023-02-18T01:08:18;98438.08;;;7.19;93.46
55191;BME280;41070;50.360;18.742;2023-02-18T01:10:46;98441.48;;;7.17;93.56
55191;BME280;41070;50.360;18.742;2023-02-18T01:13:14;98448.84;;;7.15;93.48
55191;BME280;41070;50.360;18.742;2023-02-18T01:15:41;98441.41;;;7.15;92.96
55191;BME280;41070;50.360;18.742;2023-02-18T01:18:08;98433.33;;;7.17;92.21
55191;BME280;41070;50.360;18.742;2023-02-18T01:20:36;98437.95;;;7.16;91.64
55191;BME280;41070;50.360;18.742;2023-02-18T01:23:03;98436.92;;;7.11;91.36
55191;BME280;41070;50.360;18.742;2023-02-18T01:25:30;98451.92;;;7.11;89.97
55191;BME280;41070;50.360;18.742;2023-02-18T01:27:57;98454.92;;;7.14;89.27
55191;BME280;41070;50.360;18.742;2023-02-18T01:30:23;98457.33;;;7.14;88.38
55191;BME280;41070;50.360;18.742;2023-02-18T01:32:50;98459.16;;;7.14;87.49
55191;BME280;41070;50.360;18.742;2023-02-18T01:35:17;98468.83;;;7.14;86.59
55191;BME280;41070;50.360;18.742;2023-02-18T01:37:44;98472.79;;;7.13;85.90
55191;BME280;41070;50.360;18.742;2023-02-18T01:40:14;98475.09;;;7.11;85.32
55191;BME280;41070;50.360;18.742;2023-02-18T01:42:41;98472.48;;;7.11;84.87
55191;BME280;41070;50.360;18.742;2023-02-18T01:48:04;98476.11;;;7.08;83.27
55191;BME280;41070;50.360;18.742;2023-02-18T01:50:36;98481.77;;;7.05;82.38
55191;BME280;41070;50.360;18.742;2023-02-18T01:53:04;98482.14;;;7.03;81.24
55191;BME280;41070;50.360;18.742;2023-02-18T01:55:32;98485.93;;;7.02;79.35
55191;BME280;41070;50.360;18.742;2023-02-18T01:57:59;98473.88;;;7.03;78.13
55191;BME280;41070;50.360;18.742;2023-02-18T02:00:25;98473.09;;;7.00;78.35
55191;BME280;41070;50.360;18.742;2023-02-18T02:02:52;98472.22;;;6.98;76.53
55191;BME280;41070;50.360;18.742;2023-02-18T02:05:20;98471.98;;;6.97;75.70
55191;BME280;41070;50.360;18.742;2023-02-18T02:07:50;98475.63;;;6.99;74.11
55191;BME280;41070;50.360;18.742;2023-02-18T02:10:18;98473.75;;;6.98;74.79
55191;BME280;41070;50.360;18.742;2023-02-18T02:13:07;98470.60;;;6.97;73.06
55191;BME280;41070;50.360;18.742;2023-02-18T02:15:57;98463.31;;;6.95;73.38
55191;BME280;41070;50.360;18.742;2023-02-18T02:18:42;98461.43;;;6.90;74.13
55191;BME280;41070;50.360;18.742;2023-02-18T02:24:45;98464.77;;;6.82;73.08
55191;BME280;41070;50.360;18.742;2023-02-18T02:27:21;98459.45;;;6.82;73.05
55191;BME280;41070;50.360;18.742;2023-02-18T02:30:00;98464.21;;;6.77;73.69
55191;BME280;41070;50.360;18.742;2023-02-18T02:32:52;98468.45;;;6.71;74.18
55191;BME280;41070;50.360;18.742;2023-02-18T02:35:44;98470.89;;;6.64;74.80
55191;BME280;41070;50.360;18.742;2023-02-18T02:38:33;98473.73;;;6.57;75.08
55191;BME280;41070;50.360;18.742;2023-02-18T02:46:43;98471.70;;;6.31;77.27
55191;BME280;41070;50.360;18.742;2023-02-18T02:52:20;98479.01;;;6.21;79.12
55191;BME280;41070;50.360;18.742;2023-02-18T02:54:47;98478.71;;;6.21;79.57
55191;BME280;41070;50.360;18.742;2023-02-18T02:59:46;98489.80;;;6.23;79.24
55191;BME280;41070;50.360;18.742;2023-02-18T03:02:40;98491.00;;;6.26;78.10
55191;BME280;41070;50.360;18.742;2023-02-18T03:05:15;98493.69;;;6.23;77.26
55191;BME280;41070;50.360;18.742;2023-02-18T03:08:03;98501.10;;;6.23;75.91
55191;BME280;41070;50.360;18.742;2023-02-18T03:10:56;98499.90;;;6.21;74.50
55191;BME280;41070;50.360;18.742;2023-02-18T03:19:21;98516.58;;;6.19;71.01
55191;BME280;41070;50.360;18.742;2023-02-18T03:24:41;98523.84;;;6.06;70.90
55191;BME280;41070;50.360;18.742;2023-02-18T03:29:41;98531.51;;;5.97;69.95
55191;BME280;41070;50.360;18.742;2023-02-18T03:32:09;98528.33;;;5.93;70.09
55191;BME280;41070;50.360;18.742;2023-02-18T03:34:41;98523.73;;;5.88;69.34
55191;BME280;41070;50.360;18.742;2023-02-18T03:37:09;98527.56;;;5.86;69.99
55191;BME280;41070;50.360;18.742;2023-02-18T03:39:40;98526.53;;;5.83;69.42
55191;BME280;41070;50.360;18.742;2023-02-18T03:42:09;98527.27;;;5.84;69.83
55191;BME280;41070;50.360;18.742;2023-02-18T03:44:35;98530.39;;;5.83;70.04
55191;BME280;41070;50.360;18.742;2023-02-18T03:47:02;98531.10;;;5.82;70.24
55191;BME280;41070;50.360;18.742;2023-02-18T03:49:28;98527.77;;;5.81;69.69
55191;BME280;41070;50.360;18.742;2023-02-18T03:51:54;98530.29;;;5.85;69.21
55191;BME280;41070;50.360;18.742;2023-02-18T03:54:20;98539.32;;;5.85;69.68
55191;BME280;41070;50.360;18.742;2023-02-18T03:56:47;98541.61;;;5.84;69.65
55191;BME280;41070;50.360;18.742;2023-02-18T03:59:13;98539.98;;;5.85;68.89
55191;BME280;41070;50.360;18.742;2023-02-18T04:01:39;98545.44;;;5.85;69.41
55191;BME280;41070;50.360;18.742;2023-02-18T04:04:05;98544.14;;;5.80;69.61
55191;BME280;41070;50.360;18.742;2023-02-18T04:06:32;98551.23;;;5.76;68.87
55191;BME280;41070;50.360;18.742;2023-02-18T04:08:58;98549.98;;;5.78;66.96
55191;BME280;41070;50.360;18.742;2023-02-18T04:11:24;98551.89;;;5.79;65.94
55191;BME280;41070;50.360;18.742;2023-02-18T04:13:51;98554.34;;;5.79;65.83
55191;BME280;41070;50.360;18.742;2023-02-18T04:16:17;98561.36;;;5.75;65.75
55191;BME280;41070;50.360;18.742;2023-02-18T04:18:43;98556.55;;;5.74;63.18
55191;BME280;41070;50.360;18.742;2023-02-18T04:21:10;98565.04;;;5.76;63.13
55191;BME280;41070;50.360;18.742;2023-02-18T04:23:36;98559.79;;;5.76;62.91
55191;BME280;41070;50.360;18.742;2023-02-18T04:26:03;98563.77;;;5.74;62.35
55191;BME280;41070;50.360;18.742;2023-02-18T04:28:29;98564.64;;;5.73;61.04
55191;BME280;41070;50.360;18.742;2023-02-18T04:30:55;98576.01;;;5.78;58.98
55191;BME280;41070;50.360;18.742;2023-02-18T04:33:21;98567.61;;;5.82;58.84
55191;BME280;41070;50.360;18.742;2023-02-18T04:35:47;98578.60;;;5.79;59.38
55191;BME280;41070;50.360;18.742;2023-02-18T04:38:14;98579.34;;;5.75;59.24
55191;BME280;41070;50.360;18.742;2023-02-18T04:40:40;98579.59;;;5.72;59.56
55191;BME280;41070;50.360;18.742;2023-02-18T04:43:06;98578.38;;;5.67;59.89
55191;BME280;41070;50.360;18.742;2023-02-18T04:45:32;98588.05;;;5.58;60.61
55191;BME280;41070;50.360;18.742;2023-02-18T04:47:58;98587.66;;;5.51;60.97
55191;BME280;41070;50.360;18.742;2023-02-18T04:50:25;98587.45;;;5.43;60.99
55191;BME280;41070;50.360;18.742;2023-02-18T04:52:51;98592.27;;;5.36;61.14
55191;BME280;41070;50.360;18.742;2023-02-18T04:55:17;98592.02;;;5.27;61.20
55191;BME280;41070;50.360;18.742;2023-02-18T04:57:43;98587.70;;;5.23;61.24
55191;BME280;41070;50.360;18.742;2023-02-18T05:00:14;98590.90;;;5.24;60.68
55191;BME280;41070;50.360;18.742;2023-02-18T05:02:40;98590.02;;;5.22;61.45
55191;BME280;41070;50.360;18.742;2023-02-18T05:05:06;98588.40;;;5.20;61.68
55191;BME280;41070;50.360;18.742;2023-02-18T05:07:33;98590.01;;;5.15;61.61
55191;BME280;41070;50.360;18.742;2023-02-18T05:09:59;98590.11;;;5.14;61.27
55191;BME280;41070;50.360;18.742;2023-02-18T05:12:25;98589.58;;;5.09;61.96
55191;BME280;41070;50.360;18.742;2023-02-18T05:14:51;98591.13;;;5.05;61.54
55191;BME280;41070;50.360;18.742;2023-02-18T05:17:18;98590.24;;;5.04;61.72
55191;BME280;41070;50.360;18.742;2023-02-18T05:19:44;98585.02;;;5.07;60.94
55191;BME280;41070;50.360;18.742;2023-02-18T05:22:10;98590.38;;;5.10;61.43
55191;BME280;41070;50.360;18.742;2023-02-18T05:24:36;98589.70;;;5.09;61.08
55191;BME280;41070;50.360;18.742;2023-02-18T05:27:02;98592.70;;;5.16;58.92
55191;BME280;41070;50.360;18.742;2023-02-18T05:29:28;98583.92;;;5.25;58.81
55191;BME280;41070;50.360;18.742;2023-02-18T05:31:55;98588.67;;;5.24;59.71
55191;BME280;41070;50.360;18.742;2023-02-18T05:34:21;98592.89;;;5.20;59.95
55191;BME280;41070;50.360;18.742;2023-02-18T05:36:47;98594.23;;;5.16;60.32
55191;BME280;41070;50.360;18.742;2023-02-18T05:39:13;98593.44;;;5.12;59.93
55191;BME280;41070;50.360;18.742;2023-02-18T05:41:39;98591.61;;;5.09;59.70
55191;BME280;41070;50.360;18.742;2023-02-18T05:44:06;98593.58;;;5.09;58.88
55191;BME280;41070;50.360;18.742;2023-02-18T05:46:50;98584.81;;;5.11;57.71
55191;BME280;41070;50.360;18.742;2023-02-18T05:49:16;98587.92;;;5.18;57.82
55191;BME280;41070;50.360;18.742;2023-02-18T05:51:42;98591.25;;;5.21;57.51
55191;BME280;41070;50.360;18.742;2023-02-18T05:54:09;98587.95;;;5.25;57.30
55191;BME280;41070;50.360;18.742;2023-02-18T05:56:35;98590.64;;;5.27;57.41
55191;BME280;41070;50.360;18.742;2023-02-18T05:59:01;98588.25;;;5.29;57.15
55191;BME280;41070;50.360;18.742;2023-02-18T06:01:28;98591.33;;;5.33;56.30
55191;BME280;41070;50.360;18.742;2023-02-18T06:03:54;98596.90;;;5.38;56.89
55191;BME280;41070;50.360;18.742;2023-02-18T06:06:20;98590.91;;;5.41;56.30
55191;BME280;41070;50.360;18.742;2023-02-18T06:08:47;98598.86;;;5.46;55.80
55191;BME280;41070;50.360;18.742;2023-02-18T06:11:13;98605.68;;;5.48;56.19
55191;BME280;41070;50.360;18.742;2023-02-18T06:13:39;98603.75;;;5.51;55.90
55191;BME280;41070;50.360;18.742;2023-02-18T06:16:05;98608.56;;;5.54;56.28
55191;BME280;41070;50.360;18.742;2023-02-18T06:18:32;98612.95;;;5.58;55.25
55191;BME280;41070;50.360;18.742;2023-02-18T06:20:58;98607.56;;;5.65;54.73
55191;BME280;41070;50.360;18.742;2023-02-18T06:23:24;98611.97;;;5.70;54.83
55191;BME280;41070;50.360;18.742;2023-02-18T06:25:50;98618.23;;;5.72;54.61
55191;BME280;41070;50.360;18.742;2023-02-18T06:28:17;98616.12;;;5.76;54.26
55191;BME280;41070;50.360;18.742;2023-02-18T06:30:44;98621.09;;;5.79;54.34
55191;BME280;41070;50.360;18.742;2023-02-18T06:33:11;98620.15;;;5.78;54.47
55191;BME280;41070;50.360;18.742;2023-02-18T06:35:37;98616.02;;;5.79;54.81
55191;BME280;41070;50.360;18.742;2023-02-18T06:38:03;98621.52;;;5.80;55.02
55191;BME280;41070;50.360;18.742;2023-02-18T06:40:30;98621.21;;;5.82;54.47
55191;BME280;41070;50.360;18.742;2023-02-18T06:42:56;98624.33;;;5.85;54.73
55191;BME280;41070;50.360;18.742;2023-02-18T06:45:22;98631.48;;;5.87;54.35
55191;BME280;41070;50.360;18.742;2023-02-18T06:47:48;98630.11;;;5.92;54.16
55191;BME280;41070;50.360;18.742;2023-02-18T06:50:14;98619.39;;;5.93;54.65
55191;BME280;41070;50.360;18.742;2023-02-18T06:52:41;98628.73;;;5.94;54.49
55191;BME280;41070;50.360;18.742;2023-02-18T06:55:07;98634.80;;;5.98;53.94
55191;BME280;41070;50.360;18.742;2023-02-18T06:57:34;98637.28;;;6.00;54.56
55191;BME280;41070;50.360;18.742;2023-02-18T07:00:00;98640.98;;;6.01;54.87
55191;BME280;41070;50.360;18.742;2023-02-18T07:02:26;98641.35;;;6.01;54.55
55191;BME280;41070;50.360;18.742;2023-02-18T07:04:53;98637.78;;;6.01;54.72
55191;BME280;41070;50.360;18.742;2023-02-18T07:07:19;98632.46;;;6.00;55.11
55191;BME280;41070;50.360;18.742;2023-02-18T07:09:45;98635.91;;;5.99;55.47
55191;BME280;41070;50.360;18.742;2023-02-18T07:12:11;98640.66;;;5.98;55.27
55191;BME280;41070;50.360;18.742;2023-02-18T07:14:38;98633.04;;;6.00;55.19
55191;BME280;41070;50.360;18.742;2023-02-18T07:17:05;98637.19;;;6.03;54.69
55191;BME280;41070;50.360;18.742;2023-02-18T07:19:31;98637.25;;;6.06;55.26
55191;BME280;41070;50.360;18.742;2023-02-18T07:21:57;98633.53;;;6.07;54.17
55191;BME280;41070;50.360;18.742;2023-02-18T07:24:23;98639.91;;;6.07;54.51
55191;BME280;41070;50.360;18.742;2023-02-18T07:26:50;98634.23;;;6.08;52.77
55191;BME280;41070;50.360;18.742;2023-02-18T07:29:16;98639.89;;;6.09;53.09
55191;BME280;41070;50.360;18.742;2023-02-18T07:31:42;98645.60;;;6.11;52.10
55191;BME280;41070;50.360;18.742;2023-02-18T07:34:08;98642.94;;;6.13;53.07
55191;BME280;41070;50.360;18.742;2023-02-18T07:36:35;98638.23;;;6.11;53.53
55191;BME280;41070;50.360;18.742;2023-02-18T07:39:01;98642.85;;;6.09;53.99
55191;BME280;41070;50.360;18.742;2023-02-18T07:41:27;98641.86;;;6.09;53.83
55191;BME280;41070;50.360;18.742;2023-02-18T07:43:54;98640.07;;;6.10;53.75
55191;BME280;41070;50.360;18.742;2023-02-18T07:46:20;98632.92;;;6.13;53.47
55191;BME280;41070;50.360;18.742;2023-02-18T07:48:47;98642.67;;;6.16;53.91
55191;BME280;41070;50.360;18.742;2023-02-18T07:51:13;98646.67;;;6.15;53.56
55191;BME280;41070;50.360;18.742;2023-02-18T07:53:40;98644.30;;;6.18;53.33
55191;BME280;41070;50.360;18.742;2023-02-18T07:56:07;98648.39;;;6.20;53.74
55191;BME280;41070;50.360;18.742;2023-02-18T07:58:35;98647.14;;;6.19;54.44
55191;BME280;41070;50.360;18.742;2023-02-18T08:01:07;98642.43;;;6.21;54.31
55191;BME280;41070;50.360;18.742;2023-02-18T08:03:34;98654.75;;;6.23;54.01
55191;BME280;41070;50.360;18.742;2023-02-18T08:06:02;98651.03;;;6.26;53.97
55191;BME280;41070;50.360;18.742;2023-02-18T08:08:30;98645.44;;;6.27;54.75
55191;BME280;41070;50.360;18.742;2023-02-18T08:10:59;98645.22;;;6.27;54.49
55191;BME280;41070;50.360;18.742;2023-02-18T08:13:28;98643.37;;;6.28;53.52
55191;BME280;41070;50.360;18.742;2023-02-18T08:15:55;98646.40;;;6.29;53.89
55191;BME280;41070;50.360;18.742;2023-02-18T08:18:24;98637.56;;;6.32;53.27
55191;BME280;41070;50.360;18.742;2023-02-18T08:20:51;98641.02;;;6.35;53.44
55191;BME280;41070;50.360;18.742;2023-02-18T08:23:19;98643.01;;;6.37;53.25
55191;BME280;41070;50.360;18.742;2023-02-18T08:25:47;98646.48;;;6.38;53.84
55191;BME280;41070;50.360;18.742;2023-02-18T08:28:16;98647.39;;;6.38;54.30
55191;BME280;41070;50.360;18.742;2023-02-18T08:30:46;98637.48;;;6.39;54.31
55191;BME280;41070;50.360;18.742;2023-02-18T08:33:14;98644.97;;;6.39;54.86
55191;BME280;41070;50.360;18.742;2023-02-18T08:35:41;98646.63;;;6.42;54.08
55191;BME280;41070;50.360;18.742;2023-02-18T08:38:07;98648.25;;;6.44;54.58
55191;BME280;41070;50.360;18.742;2023-02-18T08:40:34;98656.40;;;6.46;53.72
55191;BME280;41070;50.360;18.742;2023-02-18T08:43:00;98649.57;;;6.50;54.21
55191;BME280;41070;50.360;18.742;2023-02-18T08:45:27;98646.00;;;6.52;54.76
55191;BME280;41070;50.360;18.742;2023-02-18T08:47:53;98646.48;;;6.54;55.76
55191;BME280;41070;50.360;18.742;2023-02-18T08:50:19;98649.22;;;6.56;55.95
55191;BME280;41070;50.360;18.742;2023-02-18T08:52:51;98653.58;;;6.60;56.13
55191;BME280;41070;50.360;18.742;2023-02-18T08:55:18;98655.78;;;6.64;56.46
55191;BME280;41070;50.360;18.742;2023-02-18T08:57:47;98653.84;;;6.68;56.81
55191;BME280;41070;50.360;18.742;2023-02-18T09:00:15;98653.01;;;6.71;57.29
55191;BME280;41070;50.360;18.742;2023-02-18T09:02:42;98653.94;;;6.76;57.61
55191;BME280;41070;50.360;18.742;2023-02-18T09:05:08;98650.80;;;6.77;57.93
55191;BME280;41070;50.360;18.742;2023-02-18T09:07:36;98645.23;;;6.77;57.99
55191;BME280;41070;50.360;18.742;2023-02-18T09:10:03;98640.06;;;6.77;58.35
55191;BME280;41070;50.360;18.742;2023-02-18T09:12:29;98643.95;;;6.77;58.22
55191;BME280;41070;50.360;18.742;2023-02-18T09:14:55;98648.64;;;6.78;58.44
55191;BME280;41070;50.360;18.742;2023-02-18T09:17:22;98642.58;;;6.76;58.97
55191;BME280;41070;50.360;18.742;2023-02-18T09:19:48;98640.23;;;6.77;58.90
55191;BME280;41070;50.360;18.742;2023-02-18T09:22:15;98645.39;;;6.78;58.82
55191;BME280;41070;50.360;18.742;2023-02-18T09:24:41;98646.54;;;6.80;59.24
55191;BME280;41070;50.360;18.742;2023-02-18T09:27:07;98649.64;;;6.83;59.55
55191;BME280;41070;50.360;18.742;2023-02-18T09:29:37;98652.31;;;6.84;59.83
55191;BME280;41070;50.360;18.742;2023-02-18T09:32:05;98645.62;;;6.87;59.97
55191;BME280;41070;50.360;18.742;2023-02-18T09:34:32;98641.76;;;6.93;60.19
55191;BME280;41070;50.360;18.742;2023-02-18T09:36:58;98640.58;;;6.98;59.52
55191;BME280;41070;50.360;18.742;2023-02-18T09:39:24;98633.89;;;7.01;58.72
55191;BME280;41070;50.360;18.742;2023-02-18T09:41:57;98627.71;;;7.03;58.01
55191;BME280;41070;50.360;18.742;2023-02-18T09:44:37;98623.40;;;7.03;57.33
55191;BME280;41070;50.360;18.742;2023-02-18T09:47:13;98627.81;;;7.03;57.30
55191;BME280;41070;50.360;18.742;2023-02-18T09:49:44;98631.05;;;6.99;55.52
55191;BME280;41070;50.360;18.742;2023-02-18T09:52:33;98640.11;;;6.94;57.90
55191;BME280;41070;50.360;18.742;2023-02-18T09:57:51;98648.20;;;6.76;59.45
55191;BME280;41070;50.360;18.742;2023-02-18T10:00:24;98648.20;;;6.71;60.11
55191;BME280;41070;50.360;18.742;2023-02-18T10:02:58;98651.46;;;6.67;61.16
55191;BME280;41070;50.360;18.742;2023-02-18T10:05:29;98645.87;;;6.64;60.95
55191;BME280;41070;50.360;18.742;2023-02-18T10:08:16;98663.48;;;6.62;61.42
55191;BME280;41070;50.360;18.742;2023-02-18T10:10:45;98651.23;;;6.62;61.43
55191;BME280;41070;50.360;18.742;2023-02-18T10:13:17;98651.63;;;6.61;61.82
55191;BME280;41070;50.360;18.742;2023-02-18T10:15:45;98659.09;;;6.58;62.61
55191;BME280;41070;50.360;18.742;2023-02-18T10:18:30;98646.06;;;6.55;62.93
55191;BME280;41070;50.360;18.742;2023-02-18T10:21:06;98650.88;;;6.50;63.42
55191;BME280;41070;50.360;18.742;2023-02-18T10:23:37;98644.60;;;6.47;63.72
55191;BME280;41070;50.360;18.742;2023-02-18T10:26:15;98647.50;;;6.43;63.85
55191;BME280;41070;50.360;18.742;2023-02-18T10:28:44;98642.48;;;6.37;64.45
55191;BME280;41070;50.360;18.742;2023-02-18T10:31:21;98641.79;;;6.31;64.55
55191;BME280;41070;50.360;18.742;2023-02-18T10:36:45;98633.61;;;6.22;65.57
55191;BME280;41070;50.360;18.742;2023-02-18T10:42:26;98624.83;;;6.10;67.57
55191;BME280;41070;50.360;18.742;2023-02-18T10:45:12;98627.91;;;6.03;68.75
55191;BME280;41070;50.360;18.742;2023-02-18T10:50:37;98621.50;;;5.86;69.90
55191;BME280;41070;50.360;18.742;2023-02-18T10:53:15;98614.79;;;5.82;71.30
55191;BME280;41070;50.360;18.742;2023-02-18T10:55:45;98621.97;;;5.78;71.85
55191;BME280;41070;50.360;18.742;2023-02-18T10:58:26;98621.92;;;5.76;72.71
55191;BME280;41070;50.360;18.742;2023-02-18T11:00:55;98618.89;;;5.74;73.58
55191;BME280;41070;50.360;18.742;2023-02-18T11:03:26;98608.92;;;5.71;73.72
55191;BME280;41070;50.360;18.742;2023-02-18T11:06:04;98599.77;;;5.70;74.32
55191;BME280;41070;50.360;18.742;2023-02-18T11:08:41;98593.48;;;5.69;74.38
55191;BME280;41070;50.360;18.742;2023-02-18T11:11:47;98589.30;;;5.68;74.77
55191;BME280;41070;50.360;18.742;2023-02-18T11:14:15;98583.05;;;5.68;74.79
55191;BME280;41070;50.360;18.742;2023-02-18T11:17:09;98575.43;;;5.67;75.11
55191;BME280;41070;50.360;18.742;2023-02-18T11:19:40;98567.77;;;5.69;75.00
55191;BME280;41070;50.360;18.742;2023-02-18T11:22:29;98569.81;;;5.70;75.18
55191;BME280;41070;50.360;18.742;2023-02-18T11:24:59;98568.60;;;5.70;75.22
55191;BME280;41070;50.360;18.742;2023-02-18T11:27:43;98563.51;;;5.71;75.38
55191;BME280;41070;50.360;18.742;2023-02-18T11:32:52;98550.14;;;5.73;76.11
55191;BME280;41070;50.360;18.742;2023-02-18T11:35:26;98540.17;;;5.74;75.94
55191;BME280;41070;50.360;18.742;2023-02-18T11:37:56;98531.77;;;5.77;76.19
55191;BME280;41070;50.360;18.742;2023-02-18T11:40:28;98533.97;;;5.81;76.84
55191;BME280;41070;50.360;18.742;2023-02-18T11:43:10;98531.23;;;5.87;76.87
55191;BME280;41070;50.360;18.742;2023-02-18T11:45:37;98523.90;;;5.95;77.56
55191;BME280;41070;50.360;18.742;2023-02-18T11:48:07;98516.13;;;6.00;77.44
55191;BME280;41070;50.360;18.742;2023-02-18T11:50:34;98511.07;;;6.00;77.93
55191;BME280;41070;50.360;18.742;2023-02-18T11:53:01;98505.58;;;6.01;78.43
55191;BME280;41070;50.360;18.742;2023-02-18T11:55:53;98502.66;;;6.04;78.30
55191;BME280;41070;50.360;18.742;2023-02-18T11:58:21;98498.25;;;6.04;78.25
55191;BME280;41070;50.360;18.742;2023-02-18T12:04:20;98484.20;;;5.94;78.76
55191;BME280;41070;50.360;18.742;2023-02-18T12:10:09;98470.00;;;5.82;79.49
55191;BME280;41070;50.360;18.742;2023-02-18T12:12:48;98469.19;;;5.74;79.64
55191;BME280;41070;50.360;18.742;2023-02-18T12:15:22;98469.20;;;5.73;79.94
55191;BME280;41070;50.360;18.742;2023-02-18T12:23:39;98466.23;;;5.71;80.57
55191;BME280;41070;50.360;18.742;2023-02-18T12:31:48;98431.02;;;5.70;81.22
55191;BME280;41070;50.360;18.742;2023-02-18T12:37:19;98415.95;;;5.78;81.67
55191;BME280;41070;50.360;18.742;2023-02-18T13:05:56;98331.95;;;6.65;82.31
55191;BME280;41070;50.360;18.742;2023-02-18T13:14:21;98310.76;;;6.44;83.18
55191;BME280;41070;50.360;18.742;2023-02-18T13:16:52;98308.85;;;6.44;83.24
55191;BME280;41070;50.360;18.742;2023-02-18T13:22:00;98299.30;;;6.34;83.52
55191;BME280;41070;50.360;18.742;2023-02-18T13:24:41;98282.17;;;6.30;83.98
55191;BME280;41070;50.360;18.742;2023-02-18T13:27:19;98272.67;;;6.27;84.34
55191;BME280;41070;50.360;18.742;2023-02-18T13:30:15;98273.48;;;6.22;84.67
55191;BME280;41070;50.360;18.742;2023-02-18T13:35:41;98255.86;;;6.16;85.16
55191;BME280;41070;50.360;18.742;2023-02-18T13:38:28;98257.53;;;6.14;85.35
55191;BME280;41070;50.360;18.742;2023-02-18T13:40:57;98253.91;;;6.18;85.82
55191;BME280;41070;50.360;18.742;2023-02-18T13:43:33;98250.05;;;6.16;85.80
55191;BME280;41070;50.360;18.742;2023-02-18T13:46:14;98251.98;;;6.13;85.92
55191;BME280;41070;50.360;18.742;2023-02-18T13:51:44;98231.92;;;6.03;85.96
55191;BME280;41070;50.360;18.742;2023-02-18T13:56:46;98220.84;;;6.01;86.58
55191;BME280;41070;50.360;18.742;2023-02-18T13:59:18;98219.08;;;6.04;87.00
55191;BME280;41070;50.360;18.742;2023-02-18T14:01:47;98215.74;;;6.02;86.86
55191;BME280;41070;50.360;18.742;2023-02-18T14:04:34;98199.48;;;5.96;86.78
55191;BME280;41070;50.360;18.742;2023-02-18T14:07:28;98190.39;;;5.87;87.06
55191;BME280;41070;50.360;18.742;2023-02-18T14:09:57;98179.31;;;5.85;87.67
55191;BME280;41070;50.360;18.742;2023-02-18T14:15:56;98168.80;;;5.90;87.96
55191;BME280;41070;50.360;18.742;2023-02-18T14:18:30;98162.42;;;5.88;88.11
55191;BME280;41070;50.360;18.742;2023-02-18T14:21:36;98156.39;;;5.89;88.26
55191;BME280;41070;50.360;18.742;2023-02-18T14:24:12;98141.62;;;5.88;88.10
55191;BME280;41070;50.360;18.742;2023-02-18T14:26:43;98121.85;;;5.84;88.41
55191;BME280;41070;50.360;18.742;2023-02-18T14:29:33;98122.21;;;5.84;88.90
55191;BME280;41070;50.360;18.742;2023-02-18T14:32:02;98111.69;;;5.84;88.88
55191;BME280;41070;50.360;18.742;2023-02-18T14:34:44;98102.38;;;5.85;88.79
55191;BME280;41070;50.360;18.742;2023-02-18T14:40:26;98090.46;;;5.83;89.10
55191;BME280;41070;50.360;18.742;2023-02-18T14:51:08;98061.41;;;5.71;89.29
55191;BME280;41070;50.360;18.742;2023-02-18T14:53:41;98054.02;;;5.70;89.58
55191;BME280;41070;50.360;18.742;2023-02-18T14:56:09;98040.66;;;5.65;89.41
55191;BME280;41070;50.360;18.742;2023-02-18T14:58:42;98036.30;;;5.64;89.68
55191;BME280;41070;50.360;18.742;2023-02-18T15:01:23;98024.69;;;5.62;89.79
55191;BME280;41070;50.360;18.742;2023-02-18T15:03:52;98030.54;;;5.60;89.86
55191;BME280;41070;50.360;18.742;2023-02-18T15:08:48;98024.60;;;5.58;90.07
55191;BME280;41070;50.360;18.742;2023-02-18T15:11:16;98009.88;;;5.55;90.36
55191;BME280;41070;50.360;18.742;2023-02-18T15:13:44;98011.66;;;5.54;90.46
55191;BME280;41070;50.360;18.742;2023-02-18T15:16:25;98002.00;;;5.51;90.84
55191;BME280;41070;50.360;18.742;2023-02-18T15:18:57;98001.05;;;5.50;91.27
55191;BME280;41070;50.360;18.742;2023-02-18T15:21:31;97996.38;;;5.48;91.14